Tappen, North Dakota
Current Conditions -  °F | °C
As of 7:56 PM on Monday 24 Nov 2014 (Local Time) from KJMS Reporting Station
Clear Clear  
Wind Chill:   Ceiling: Unl
Heat Index: 11°   Visibility: 10mi
Dew Point:   Wind: 7mph
Humidity: 64%   Direction: 300°WNW
Pressure: 29.97"   Gusts: NA
Location:  46.87°N, 99.64°W
Report Text: KJMS 250156Z AUTO 30006KT 10SM CLR M12/M17 A2997 RMK AO2 SLP184 T11171172
Loading
Personal Weather Stations






























Interactive Weather Map New forecast layout! Learn more

10-Day Weather Forecast

Advertisements
Track Severe Weather on mobile